createdAt,value
2023-04-05T00:01:37.759Z,91.10
2023-04-05T00:04:08.013Z,91.10
2023-04-05T00:06:40.052Z,91.20
2023-04-05T00:09:09.091Z,91.20
2023-04-05T00:11:38.124Z,91.20
2023-04-05T00:14:07.098Z,91.20
2023-04-05T00:16:37.539Z,91.20
2023-04-05T00:19:06.761Z,91.30
2023-04-05T00:21:35.997Z,91.30
2023-04-05T00:24:07.583Z,91.20
2023-04-05T00:26:37.219Z,91.20
2023-04-05T00:29:06.526Z,91.20
2023-04-05T00:31:35.677Z,91.20
2023-04-05T00:34:08.948Z,91.20
2023-04-05T00:36:38.149Z,91.30
2023-04-05T00:39:08.663Z,91.40
2023-04-05T00:41:40.186Z,91.40
2023-04-05T00:44:09.574Z,91.40
2023-04-05T00:46:38.585Z,91.70
2023-04-05T00:49:07.823Z,91.60
2023-04-05T00:51:38.155Z,91.70
2023-04-05T00:54:09.463Z,91.70
2023-04-05T00:56:38.637Z,91.70
2023-04-05T00:59:07.843Z,91.70
2023-04-05T01:01:42.530Z,91.70
2023-04-05T01:04:14.118Z,91.70
2023-04-05T01:07:01.340Z,91.70
2023-04-05T01:09:39.388Z,91.70
2023-04-05T01:12:11.095Z,91.70
2023-04-05T01:14:48.087Z,91.70
2023-04-05T01:17:22.443Z,91.70
2023-04-05T01:19:54.469Z,91.70
2023-04-05T01:23:03.353Z,91.70
2023-04-05T01:26:11.029Z,91.70
2023-04-05T01:29:10.930Z,91.70
2023-04-05T01:31:47.815Z,91.70
2023-04-05T01:34:27.590Z,91.70
2023-04-05T01:36:58.552Z,91.80
2023-04-05T01:39:31.204Z,91.80
2023-04-05T01:42:01.312Z,91.80
2023-04-05T01:44:30.570Z,91.70
2023-04-05T01:47:01.128Z,91.60
2023-04-05T01:49:30.220Z,91.60
2023-04-05T01:51:59.286Z,91.60
2023-04-05T01:54:29.561Z,91.60
2023-04-05T01:56:58.963Z,91.60
2023-04-05T01:59:28.055Z,91.60
2023-04-05T02:01:57.280Z,91.70
2023-04-05T02:04:27.680Z,91.60
2023-04-05T02:06:56.689Z,91.70
2023-04-05T02:09:25.828Z,91.70
2023-04-05T02:11:54.922Z,91.70
2023-04-05T02:14:26.220Z,91.80
2023-04-05T02:16:55.866Z,91.70
2023-04-05T02:19:31.787Z,91.80
2023-04-05T02:22:00.974Z,91.60
2023-04-05T02:24:31.416Z,92.00
2023-04-05T02:27:00.995Z,91.60
2023-04-05T02:29:31.852Z,91.50
2023-04-05T02:32:01.041Z,91.50
2023-04-05T02:34:31.795Z,91.50
2023-04-05T02:37:01.889Z,91.50
2023-04-05T02:39:31.241Z,91.40
2023-04-05T02:42:00.469Z,91.40
2023-04-05T02:44:29.930Z,91.30
2023-04-05T02:46:59.041Z,91.30
2023-04-05T02:49:34.481Z,91.30
2023-04-05T02:52:06.669Z,91.30
2023-04-05T02:54:36.352Z,91.30
2023-04-05T02:57:05.606Z,91.30
2023-04-05T02:59:45.480Z,91.30
2023-04-05T03:02:14.528Z,91.30
2023-04-05T03:04:45.406Z,91.30
2023-04-05T03:07:18.658Z,91.30
2023-04-05T03:09:51.398Z,91.30
2023-04-05T03:12:21.286Z,91.30
2023-04-05T03:14:51.046Z,91.30
2023-04-05T03:17:24.035Z,91.30
2023-04-05T03:20:06.332Z,91.30
2023-04-05T03:22:36.298Z,91.30
2023-04-05T03:25:08.225Z,91.40
2023-04-05T03:27:44.182Z,91.40
2023-04-05T03:30:17.187Z,91.50
2023-04-05T03:32:57.345Z,91.40
2023-04-05T03:35:47.503Z,91.50
2023-04-05T03:38:17.720Z,91.50
2023-04-05T03:41:09.795Z,91.50
2023-04-05T03:43:39.065Z,91.50
2023-04-05T03:46:08.530Z,91.50
2023-04-05T03:48:37.551Z,91.60
2023-04-05T03:51:08.417Z,91.60
2023-04-05T03:53:37.430Z,91.70
2023-04-05T03:56:07.135Z,91.70
2023-04-05T03:58:54.204Z,91.70
2023-04-05T04:01:27.988Z,91.70
2023-04-05T04:03:57.854Z,91.70
2023-04-05T04:06:30.895Z,91.80
2023-04-05T04:09:00.116Z,91.90
2023-04-05T04:11:30.960Z,91.80
2023-04-05T04:14:03.644Z,91.90
2023-04-05T04:16:47.921Z,91.90
2023-04-05T04:19:35.471Z,91.90
2023-04-05T04:22:33.124Z,92.00
2023-04-05T04:25:30.943Z,92.00
2023-04-05T04:28:19.639Z,91.90
2023-04-05T04:30:57.385Z,91.90
2023-04-05T04:33:50.348Z,91.90
2023-04-05T04:36:42.961Z,91.90
2023-04-05T04:39:32.889Z,91.90
2023-04-05T04:42:22.866Z,91.90
2023-04-05T04:45:12.663Z,91.90
2023-04-05T04:47:59.963Z,91.90
2023-04-05T04:50:43.493Z,91.90
2023-04-05T04:53:13.732Z,92.00
2023-04-05T04:55:44.638Z,92.00
2023-04-05T04:58:14.383Z,92.00
2023-04-05T05:00:46.983Z,92.00
2023-04-05T05:03:16.621Z,92.00
2023-04-05T05:05:46.926Z,92.10
2023-04-05T05:08:21.348Z,92.10
2023-04-05T05:10:53.842Z,92.10
2023-04-05T05:13:22.849Z,92.10
2023-04-05T05:15:52.033Z,92.10
2023-04-05T05:18:21.341Z,92.20
2023-04-05T05:20:53.004Z,92.20
2023-04-05T05:23:22.204Z,92.20
2023-04-05T05:25:51.307Z,92.20
2023-04-05T05:28:21.734Z,92.20
2023-04-05T05:30:50.954Z,92.20
2023-04-05T05:33:20.034Z,92.30
2023-04-05T05:35:50.217Z,92.30
2023-04-05T05:38:19.274Z,92.30
2023-04-05T05:40:48.288Z,92.30
2023-04-05T05:43:17.345Z,92.30
2023-04-05T05:45:48.492Z,92.40
2023-04-05T05:48:17.655Z,92.40
2023-04-05T05:50:49.329Z,92.40
2023-04-05T05:53:18.344Z,92.50
2023-04-05T05:55:47.704Z,92.50
2023-04-05T05:58:16.776Z,92.50
2023-04-05T06:00:50.497Z,92.60
2023-04-05T06:03:21.715Z,92.60
2023-04-05T06:05:54.230Z,92.60
2023-04-05T06:08:23.652Z,92.70
2023-04-05T06:10:53.712Z,92.60
2023-04-05T06:13:22.783Z,92.60
2023-04-05T06:15:53.624Z,92.60
2023-04-05T06:18:23.865Z,92.60
2023-04-05T06:20:53.044Z,92.60
2023-04-05T06:23:22.095Z,92.50
2023-04-05T06:25:51.379Z,92.50
2023-04-05T06:28:20.515Z,92.60
2023-04-05T06:30:49.626Z,92.60
2023-04-05T06:33:20.406Z,92.60
2023-04-05T06:35:49.747Z,92.60
2023-04-05T06:38:19.446Z,92.60
2023-04-05T06:40:48.650Z,92.50
2023-04-05T06:43:17.842Z,92.60
2023-04-05T06:45:47.061Z,92.60
2023-04-05T06:48:24.017Z,92.60
2023-04-05T06:51:02.470Z,92.60
2023-04-05T06:53:31.939Z,92.60
2023-04-05T06:56:01.764Z,92.60
2023-04-05T06:58:31.367Z,92.60
2023-04-05T07:01:02.668Z,92.60
2023-04-05T07:03:34.009Z,92.60
2023-04-05T07:06:04.465Z,92.60
2023-04-05T07:08:34.444Z,92.40
2023-04-05T07:11:03.599Z,92.40
2023-04-05T07:13:33.801Z,92.50
2023-04-05T07:16:03.986Z,92.50
2023-04-05T07:18:34.960Z,92.50
2023-04-05T07:21:05.067Z,92.60
2023-04-05T07:23:34.222Z,92.60
2023-04-05T07:26:06.217Z,92.60
2023-04-05T07:28:36.394Z,92.60
2023-04-05T07:31:06.649Z,92.60
2023-04-05T07:33:37.412Z,92.60
2023-04-05T07:36:07.330Z,92.70
2023-04-05T07:38:36.726Z,92.70
2023-04-05T07:41:06.128Z,92.70
2023-04-05T07:43:35.229Z,92.70
2023-04-05T07:46:05.763Z,92.80
2023-04-05T07:48:36.785Z,92.80
2023-04-05T07:51:10.845Z,92.80
2023-04-05T07:53:40.103Z,92.80
2023-04-05T07:56:12.547Z,92.80
2023-04-05T07:58:44.427Z,92.80
2023-04-05T08:01:14.797Z,92.80
2023-04-05T08:04:02.236Z,92.90
2023-04-05T08:06:33.210Z,92.90
2023-04-05T08:09:05.788Z,92.80
2023-04-05T08:11:34.856Z,92.80
2023-04-05T08:14:04.001Z,92.80
2023-04-05T08:16:34.735Z,92.90
2023-04-05T08:19:05.235Z,92.90
2023-04-05T08:21:34.469Z,92.90
2023-04-05T08:24:03.667Z,92.90
2023-04-05T08:26:32.814Z,92.90
2023-04-05T08:29:01.965Z,92.90
2023-04-05T08:31:31.337Z,92.90
2023-04-05T08:34:00.391Z,92.90
2023-04-05T08:36:30.853Z,92.90
2023-04-05T08:38:59.949Z,92.90
2023-04-05T08:41:34.294Z,92.90
2023-04-05T08:44:05.745Z,92.90
2023-04-05T08:46:36.166Z,92.90
2023-04-05T08:49:07.450Z,92.90
2023-04-05T08:51:39.632Z,92.90
2023-04-05T08:54:10.039Z,92.90
2023-04-05T08:56:40.318Z,92.80
2023-04-05T08:59:11.134Z,92.70
2023-04-05T09:01:43.308Z,92.70
2023-04-05T09:04:18.116Z,92.70
2023-04-05T09:06:50.579Z,92.60
2023-04-05T09:09:21.453Z,92.60
2023-04-05T09:11:51.067Z,92.60
2023-04-05T09:14:22.164Z,92.50
2023-04-05T09:16:51.264Z,92.50
2023-04-05T09:19:20.382Z,92.50
2023-04-05T09:22:05.486Z,92.50
2023-04-05T09:24:41.792Z,92.50
2023-04-05T09:27:12.935Z,92.40
2023-04-05T09:29:43.250Z,92.40
2023-04-05T09:32:13.784Z,92.40
2023-04-05T09:34:44.604Z,92.30
2023-04-05T09:37:27.511Z,92.30
2023-04-05T09:40:06.809Z,92.20
2023-04-05T09:42:45.653Z,92.20
2023-04-05T09:45:15.684Z,92.00
2023-04-05T09:47:59.722Z,92.00
2023-04-05T09:50:29.277Z,92.00
2023-04-05T09:53:15.970Z,91.80
2023-04-05T09:55:45.677Z,91.80
2023-04-05T09:58:19.871Z,91.80
2023-04-05T10:01:06.184Z,91.70
2023-04-05T10:03:49.201Z,91.80
2023-04-05T10:06:18.749Z,91.70
2023-04-05T10:08:49.942Z,91.70
2023-04-05T10:11:19.737Z,91.60
2023-04-05T10:13:51.785Z,91.60
2023-04-05T10:16:24.895Z,91.50
2023-04-05T10:18:54.483Z,91.40
2023-04-05T10:21:24.555Z,91.40
2023-04-05T10:24:04.986Z,91.40
2023-04-05T10:26:42.641Z,91.40
2023-04-05T10:29:17.107Z,91.30
2023-04-05T10:31:53.142Z,91.20
2023-04-05T10:34:32.428Z,91.10
2023-04-05T10:37:03.477Z,91.10
2023-04-05T10:39:41.530Z,91.10
2023-04-05T10:42:19.987Z,90.90
2023-04-05T10:44:53.575Z,90.90
2023-04-05T10:47:26.932Z,90.80
2023-04-05T10:50:00.842Z,90.70
2023-04-05T10:52:30.873Z,90.70
2023-04-05T10:55:04.505Z,90.60
2023-04-05T10:57:34.507Z,90.60
2023-04-05T11:00:04.041Z,90.50
2023-04-05T11:02:33.828Z,90.30
2023-04-05T11:05:05.935Z,90.20
2023-04-05T11:07:45.213Z,90.10
2023-04-05T11:10:19.258Z,89.90
2023-04-05T11:13:11.328Z,89.70
2023-04-05T11:15:40.725Z,89.40
2023-04-05T11:18:11.922Z,89.20
2023-04-05T11:20:41.917Z,89.10
2023-04-05T11:23:11.382Z,89.20
2023-04-05T11:25:47.133Z,89.20
2023-04-05T11:28:27.131Z,88.90
2023-04-05T11:30:59.069Z,88.80
2023-04-05T11:33:57.259Z,88.80
2023-04-05T11:36:38.077Z,88.70
2023-04-05T11:39:27.201Z,88.70
2023-04-05T11:42:02.899Z,88.70
2023-04-05T11:44:42.351Z,88.60
2023-04-05T11:47:12.158Z,88.60
2023-04-05T11:49:42.609Z,88.60
2023-04-05T11:52:13.801Z,88.60
2023-04-05T11:54:46.754Z,88.70
2023-04-05T11:57:21.013Z,88.80
2023-04-05T11:59:53.286Z,88.60
2023-04-05T12:02:23.571Z,88.60
2023-04-05T12:04:57.431Z,88.50
2023-04-05T12:07:29.158Z,88.40
2023-04-05T12:10:02.560Z,88.30
2023-04-05T12:12:38.938Z,88.20
2023-04-05T12:15:10.825Z,87.90
2023-04-05T12:17:47.458Z,87.80
2023-04-05T12:20:19.436Z,87.60
2023-04-05T12:22:50.636Z,87.60
2023-04-05T12:25:20.595Z,87.40
2023-04-05T12:27:51.146Z,87.30
2023-04-05T12:30:22.071Z,87.30
2023-04-05T12:32:53.979Z,87.00
2023-04-05T12:35:27.215Z,86.70
2023-04-05T12:37:59.698Z,86.50
2023-04-05T12:40:30.969Z,86.20
2023-04-05T12:43:05.220Z,86.10
2023-04-05T12:45:40.617Z,86.10
2023-04-05T12:48:11.769Z,85.90
2023-04-05T12:50:45.632Z,85.80
2023-04-05T12:53:20.416Z,85.60
2023-04-05T12:55:54.067Z,85.40
2023-04-05T12:58:33.478Z,85.20
2023-04-05T13:01:02.696Z,85.00
2023-04-05T13:03:32.148Z,84.90
2023-04-05T13:06:01.389Z,84.80
2023-04-05T13:08:30.677Z,84.80
2023-04-05T13:10:59.726Z,85.00
2023-04-05T13:13:30.131Z,84.80
2023-04-05T13:15:59.175Z,84.80
2023-04-05T13:18:28.199Z,84.80
2023-04-05T13:20:57.273Z,84.90
2023-04-05T13:23:26.408Z,84.90
2023-04-05T13:25:55.510Z,85.10
2023-04-05T13:28:26.065Z,85.30
2023-04-05T13:30:56.696Z,85.70
2023-04-05T13:33:25.943Z,86.10
2023-04-05T13:35:55.014Z,86.20
2023-04-05T13:38:24.087Z,86.30
2023-04-05T13:40:53.297Z,86.40
2023-04-05T13:43:22.306Z,86.40
2023-04-05T13:45:51.778Z,86.70
2023-04-05T13:48:22.262Z,87.00
2023-04-05T13:50:51.319Z,87.30
2023-04-05T13:53:20.335Z,87.60
2023-04-05T13:55:49.371Z,87.70
2023-04-05T13:58:18.388Z,87.60
2023-04-05T14:00:47.489Z,87.70
2023-04-05T14:03:16.733Z,87.70
2023-04-05T14:05:50.329Z,87.50
2023-04-05T14:08:20.641Z,87.40
2023-04-05T14:10:50.153Z,87.50
2023-04-05T14:13:19.214Z,87.50
2023-04-05T14:15:48.381Z,87.30
2023-04-05T14:18:17.475Z,87.30
2023-04-05T14:20:47.874Z,87.30
2023-04-05T14:23:16.926Z,87.10
2023-04-05T14:25:46.020Z,86.70
2023-04-05T14:28:15.089Z,86.60
2023-04-05T14:30:44.407Z,86.40
2023-04-05T14:33:21.390Z,86.30
2023-04-05T14:35:50.679Z,86.40
2023-04-05T14:38:19.770Z,86.40
2023-04-05T14:40:48.797Z,86.70
2023-04-05T14:43:18.025Z,86.60
2023-04-05T14:45:47.182Z,86.60
2023-04-05T14:48:16.319Z,86.60
2023-04-05T14:50:46.732Z,86.60
2023-04-05T14:53:15.786Z,86.50
2023-04-05T14:55:44.778Z,86.60
2023-04-05T14:58:14.566Z,86.60
2023-04-05T15:00:43.961Z,86.60
2023-04-05T15:03:13.164Z,86.60
2023-04-05T15:05:42.413Z,86.70
2023-04-05T15:08:12.785Z,86.80
2023-04-05T15:10:42.929Z,86.80
2023-04-05T15:13:13.362Z,86.90
2023-04-05T15:15:42.467Z,86.90
2023-04-05T15:18:11.519Z,87.10
2023-04-05T15:20:40.573Z,87.10
2023-04-05T15:23:09.697Z,87.30
2023-04-05T15:25:40.139Z,87.50
2023-04-05T15:28:09.082Z,87.60
2023-04-05T15:30:38.154Z,87.80
2023-04-05T15:33:07.224Z,87.90
2023-04-05T15:35:37.757Z,88.10
2023-04-05T15:38:07.066Z,88.30
2023-04-05T15:40:36.461Z,88.30
2023-04-05T15:43:06.925Z,88.30
2023-04-05T15:45:36.061Z,88.30
2023-04-05T15:48:05.250Z,88.20
2023-04-05T15:50:34.325Z,88.10
2023-04-05T15:53:03.452Z,88.10
2023-04-05T15:55:32.730Z,88.00
2023-04-05T15:58:02.056Z,88.00
2023-04-05T16:00:32.823Z,88.00
2023-04-05T16:03:02.046Z,88.00
2023-04-05T16:05:31.130Z,88.00
2023-04-05T16:08:00.171Z,88.10
2023-04-05T16:10:29.335Z,88.20
2023-04-05T16:12:58.371Z,88.40
2023-04-05T16:15:28.370Z,88.70
2023-04-05T16:17:58.843Z,88.90
2023-04-05T16:20:27.957Z,89.00
2023-04-05T16:22:57.051Z,89.20
2023-04-05T16:25:26.144Z,89.30
2023-04-05T16:27:55.398Z,89.30
2023-04-05T16:30:24.419Z,89.40
2023-04-05T16:32:53.970Z,89.40
2023-04-05T16:35:24.496Z,89.30
2023-04-05T16:37:53.643Z,89.20
2023-04-05T16:40:23.282Z,89.30
2023-04-05T16:42:54.264Z,89.20
2023-04-05T16:45:23.341Z,89.10
2023-04-05T16:47:53.735Z,88.80
2023-04-05T16:50:24.469Z,88.70
2023-04-05T16:52:54.672Z,88.60
2023-04-05T16:55:23.795Z,88.60
2023-04-05T16:57:54.182Z,88.50
2023-04-05T17:00:23.483Z,88.30
2023-04-05T17:02:52.635Z,88.30
2023-04-05T17:05:23.389Z,88.00
2023-04-05T17:07:53.204Z,87.60
2023-04-05T17:10:22.462Z,87.20
2023-04-05T17:12:51.576Z,86.70
2023-04-05T17:15:20.750Z,86.40
2023-04-05T17:17:49.881Z,86.10
2023-04-05T17:20:19.103Z,85.90
2023-04-05T17:22:50.403Z,85.50
2023-04-05T17:25:19.614Z,85.30
2023-04-05T17:27:48.856Z,85.30
2023-04-05T17:30:18.258Z,85.20
2023-04-05T17:32:47.717Z,85.20
2023-04-05T17:35:19.274Z,85.20
2023-04-05T17:37:49.908Z,85.10
2023-04-05T17:40:19.233Z,85.20
2023-04-05T17:42:48.235Z,85.20
2023-04-05T17:45:17.387Z,85.30
2023-04-05T17:47:46.500Z,85.10
2023-04-05T17:50:15.646Z,85.00
2023-04-05T17:52:45.008Z,84.80
2023-04-05T17:55:15.651Z,84.70
2023-04-05T17:57:44.776Z,84.40
2023-04-05T18:00:15.018Z,84.30
2023-04-05T18:02:45.585Z,84.10
2023-04-05T18:05:15.088Z,84.00
2023-04-05T18:07:44.172Z,83.80
2023-04-05T18:10:14.863Z,83.60
2023-04-05T18:12:44.003Z,83.40
2023-04-05T18:15:13.907Z,83.20
2023-04-05T18:17:44.974Z,83.00
2023-04-05T18:20:14.165Z,82.80
2023-04-05T18:22:43.311Z,82.80
2023-04-05T18:25:13.357Z,82.40
2023-04-05T18:27:43.896Z,82.10
2023-04-05T18:30:14.450Z,81.90
2023-04-05T18:32:44.352Z,81.90
2023-04-05T18:35:13.452Z,81.70
2023-04-05T18:37:42.629Z,81.50
2023-04-05T18:40:12.191Z,81.50
2023-04-05T18:42:41.270Z,81.40
2023-04-05T18:45:12.592Z,81.30
2023-04-05T18:47:41.420Z,81.10
2023-04-05T18:50:11.232Z,81.10
2023-04-05T18:52:40.198Z,81.10
2023-04-05T18:55:09.960Z,81.10
2023-04-05T18:57:38.993Z,81.10
2023-04-05T19:00:09.353Z,80.90
2023-04-05T19:02:41.159Z,80.80
2023-04-05T19:05:11.239Z,80.80
2023-04-05T19:07:40.367Z,80.80
2023-04-05T19:10:10.448Z,80.80
2023-04-05T19:12:39.455Z,80.80
2023-04-05T19:15:10.010Z,80.80
2023-04-05T19:17:40.589Z,80.70
2023-04-05T19:20:10.564Z,80.70
2023-04-05T19:22:39.568Z,80.80
2023-04-05T19:25:08.997Z,80.90
2023-04-05T19:27:38.267Z,81.00
2023-04-05T19:30:08.827Z,81.00
2023-04-05T19:32:41.504Z,81.10
2023-04-05T19:35:11.377Z,81.20
2023-04-05T19:37:40.756Z,81.40
2023-04-05T19:40:12.577Z,81.50
2023-04-05T19:42:47.629Z,81.70
2023-04-05T19:45:25.472Z,81.80
2023-04-05T19:47:57.104Z,81.90
2023-04-05T19:50:54.282Z,81.90
2023-04-05T19:53:45.790Z,82.00
2023-04-05T19:56:18.446Z,82.00
2023-04-05T19:58:49.386Z,82.10
2023-04-05T20:01:33.562Z,82.10
2023-04-05T20:04:12.117Z,82.20
2023-04-05T20:06:43.005Z,82.40
2023-04-05T20:09:13.650Z,82.70
2023-04-05T20:11:43.747Z,82.80
2023-04-05T20:14:12.733Z,83.00
2023-04-05T20:16:41.941Z,83.30
2023-04-05T20:19:12.659Z,83.40
2023-04-05T20:21:43.214Z,83.80
2023-04-05T20:24:18.338Z,83.80
2023-04-05T20:26:47.382Z,84.10
2023-04-05T20:29:23.852Z,84.30
2023-04-05T20:31:52.890Z,84.40
2023-04-05T20:34:28.884Z,84.50
2023-04-05T20:37:00.663Z,84.70
2023-04-05T20:39:30.468Z,84.70
2023-04-05T20:42:01.109Z,84.80
2023-04-05T20:44:30.246Z,84.80
2023-04-05T20:46:59.639Z,84.70
2023-04-05T20:49:30.396Z,84.60
2023-04-05T20:51:59.836Z,84.50
2023-04-05T20:54:29.193Z,84.40
2023-04-05T20:56:58.491Z,84.30
2023-04-05T20:59:27.588Z,84.30
2023-04-05T21:01:57.023Z,84.40
2023-04-05T21:04:29.361Z,84.40
2023-04-05T21:07:00.388Z,84.30
2023-04-05T21:09:29.374Z,84.20
2023-04-05T21:11:58.797Z,84.20
2023-04-05T21:14:28.096Z,84.20
2023-04-05T21:16:57.090Z,84.10
2023-04-05T21:19:26.145Z,84.00
2023-04-05T21:21:55.193Z,84.00
2023-04-05T21:24:25.546Z,84.00
2023-04-05T21:26:54.584Z,84.00
2023-04-05T21:29:23.613Z,84.00
2023-04-05T21:31:52.737Z,83.90
2023-04-05T21:34:21.720Z,83.80
2023-04-05T21:36:50.919Z,83.80
2023-04-05T21:39:19.942Z,83.70
2023-04-05T21:41:50.300Z,83.60
2023-04-05T21:44:19.274Z,83.50
2023-04-05T21:46:48.351Z,83.50
2023-04-05T21:49:17.452Z,83.40
2023-04-05T21:51:46.424Z,83.30
2023-04-05T21:54:17.808Z,83.10
2023-04-05T21:56:47.182Z,83.10
2023-04-05T21:59:17.688Z,82.80
2023-04-05T22:01:46.806Z,82.60
2023-04-05T22:04:16.226Z,82.40
2023-04-05T22:06:45.330Z,82.30
2023-04-05T22:09:14.348Z,82.10
2023-04-05T22:11:44.956Z,82.00
2023-04-05T22:14:13.948Z,81.80
2023-04-05T22:16:44.743Z,81.80
2023-04-05T22:19:14.518Z,81.70
2023-04-05T22:21:43.655Z,81.70
2023-04-05T22:24:12.930Z,81.80
2023-04-05T22:26:42.414Z,82.80
2023-04-05T22:29:11.541Z,82.00
2023-04-05T22:31:40.498Z,82.00
2023-04-05T22:34:10.978Z,82.10
2023-04-05T22:36:39.990Z,82.10
2023-04-05T22:39:10.822Z,82.20
2023-04-05T22:41:40.207Z,82.20
2023-04-05T22:44:09.262Z,82.10
2023-04-05T22:46:38.655Z,81.90
2023-04-05T22:49:07.989Z,81.60
2023-04-05T22:51:38.512Z,81.30
2023-04-05T22:54:07.682Z,81.00
2023-04-05T22:56:36.760Z,80.80
2023-04-05T22:59:05.828Z,80.30
2023-04-05T23:01:35.078Z,79.90
2023-04-05T23:04:04.211Z,79.50
2023-04-05T23:06:33.229Z,79.30
2023-04-05T23:09:04.889Z,79.10
2023-04-05T23:11:33.915Z,78.80
2023-04-05T23:14:02.959Z,78.60
2023-04-05T23:16:32.039Z,78.50
2023-04-05T23:19:01.193Z,78.40
2023-04-05T23:21:31.259Z,78.30
2023-04-05T23:24:00.357Z,78.20
2023-04-05T23:26:30.820Z,78.00
2023-04-05T23:28:59.832Z,77.80
2023-04-05T23:31:28.947Z,77.80
2023-04-05T23:33:58.017Z,77.60
2023-04-05T23:36:27.852Z,77.50
2023-04-05T23:38:58.649Z,77.30
2023-04-05T23:41:27.687Z,77.00
2023-04-05T23:43:58.088Z,76.90
2023-04-05T23:46:27.193Z,76.70
2023-04-05T23:48:56.405Z,76.70
2023-04-05T23:51:26.481Z,76.70
2023-04-05T23:53:55.471Z,76.60
2023-04-05T23:56:24.478Z,76.50
2023-04-05T23:58:53.601Z,76.50
